sensor_id;sensor_type;location;lat;lon;timestamp;temperature;humidity
12386;DHT22;6257;57.634;18.310;2023-02-02T00:02:10;1.50;99.90
12386;DHT22;6257;57.634;18.310;2023-02-02T00:04:37;1.40;99.90
12386;DHT22;6257;57.634;18.310;2023-02-02T00:07:05;1.40;99.90
12386;DHT22;6257;57.634;18.310;2023-02-02T00:09:32;1.40;99.90
12386;DHT22;6257;57.634;18.310;2023-02-02T00:12:00;1.30;99.90
12386;DHT22;6257;57.634;18.310;2023-02-02T00:14:27;1.30;99.90
12386;DHT22;6257;57.634;18.310;2023-02-02T00:16:55;1.20;99.90
12386;DHT22;6257;57.634;18.310;2023-02-02T00:19:26;1.10;99.90
12386;DHT22;6257;57.634;18.310;2023-02-02T00:21:55;1.10;99.90
12386;DHT22;6257;57.634;18.310;2023-02-02T00:24:22;1.10;99.90
12386;DHT22;6257;57.634;18.310;2023-02-02T00:26:52;1.00;99.90
12386;DHT22;6257;57.634;18.310;2023-02-02T00:29:21;1.00;99.90
12386;DHT22;6257;57.634;18.310;2023-02-02T00:31:49;1.10;99.90
12386;DHT22;6257;57.634;18.310;2023-02-02T00:34:17;1.00;99.90
12386;DHT22;6257;57.634;18.310;2023-02-02T00:36:47;1.00;99.90
12386;DHT22;6257;57.634;18.310;2023-02-02T00:39:16;1.10;99.90
12386;DHT22;6257;57.634;18.310;2023-02-02T00:41:44;1.00;99.90
12386;DHT22;6257;57.634;18.310;2023-02-02T00:44:11;1.10;99.90
12386;DHT22;6257;57.634;18.310;2023-02-02T00:46:56;1.10;99.90
12386;DHT22;6257;57.634;18.310;2023-02-02T00:49:23;1.20;99.90
12386;DHT22;6257;57.634;18.310;2023-02-02T00:51:51;1.10;99.90
12386;DHT22;6257;57.634;18.310;2023-02-02T00:54:18;1.10;99.90
12386;DHT22;6257;57.634;18.310;2023-02-02T00:56:45;1.20;99.90
12386;DHT22;6257;57.634;18.310;2023-02-02T00:59:12;1.10;99.90
12386;DHT22;6257;57.634;18.310;2023-02-02T01:01:40;1.40;99.90
12386;DHT22;6257;57.634;18.310;2023-02-02T01:04:07;1.30;99.90
12386;DHT22;6257;57.634;18.310;2023-02-02T01:06:34;1.30;99.90
12386;DHT22;6257;57.634;18.310;2023-02-02T01:09:03;1.50;99.90
12386;DHT22;6257;57.634;18.310;2023-02-02T01:11:30;1.40;99.90
12386;DHT22;6257;57.634;18.310;2023-02-02T01:13:57;1.30;99.90
12386;DHT22;6257;57.634;18.310;2023-02-02T01:16:24;1.40;99.90
12386;DHT22;6257;57.634;18.310;2023-02-02T01:18:51;1.40;99.90
12386;DHT22;6257;57.634;18.310;2023-02-02T01:21:19;1.40;99.90
12386;DHT22;6257;57.634;18.310;2023-02-02T01:23:46;1.40;99.90
12386;DHT22;6257;57.634;18.310;2023-02-02T01:26:15;1.40;99.90
12386;DHT22;6257;57.634;18.310;2023-02-02T01:28:43;1.50;99.90
12386;DHT22;6257;57.634;18.310;2023-02-02T01:31:12;1.40;99.90
12386;DHT22;6257;57.634;18.310;2023-02-02T01:33:40;1.40;99.90
12386;DHT22;6257;57.634;18.310;2023-02-02T01:36:11;1.50;99.90
12386;DHT22;6257;57.634;18.310;2023-02-02T01:38:38;1.40;99.90
12386;DHT22;6257;57.634;18.310;2023-02-02T01:41:07;1.40;99.90
12386;DHT22;6257;57.634;18.310;2023-02-02T01:43:54;1.40;99.90
12386;DHT22;6257;57.634;18.310;2023-02-02T01:46:23;1.40;99.90
12386;DHT22;6257;57.634;18.310;2023-02-02T01:48:54;1.40;99.90
12386;DHT22;6257;57.634;18.310;2023-02-02T01:51:26;1.40;99.90
12386;DHT22;6257;57.634;18.310;2023-02-02T01:53:55;1.40;99.90
12386;DHT22;6257;57.634;18.310;2023-02-02T01:56:26;1.40;99.90
12386;DHT22;6257;57.634;18.310;2023-02-02T01:58:56;1.40;99.90
12386;DHT22;6257;57.634;18.310;2023-02-02T02:01:24;1.50;99.90
12386;DHT22;6257;57.634;18.310;2023-02-02T02:03:51;1.50;99.90
12386;DHT22;6257;57.634;18.310;2023-02-02T02:06:19;1.50;99.90
12386;DHT22;6257;57.634;18.310;2023-02-02T02:08:50;1.50;99.90
12386;DHT22;6257;57.634;18.310;2023-02-02T02:11:18;1.50;99.90
12386;DHT22;6257;57.634;18.310;2023-02-02T02:13:46;1.50;99.90
12386;DHT22;6257;57.634;18.310;2023-02-02T02:16:44;1.60;99.90
12386;DHT22;6257;57.634;18.310;2023-02-02T02:19:28;1.60;99.90
12386;DHT22;6257;57.634;18.310;2023-02-02T02:22:03;1.60;99.90
12386;DHT22;6257;57.634;18.310;2023-02-02T02:28:33;1.70;99.90
12386;DHT22;6257;57.634;18.310;2023-02-02T02:31:27;1.80;99.90
12386;DHT22;6257;57.634;18.310;2023-02-02T02:34:01;1.80;99.90
12386;DHT22;6257;57.634;18.310;2023-02-02T02:36:36;1.70;99.90
12386;DHT22;6257;57.634;18.310;2023-02-02T02:39:11;1.50;99.90
12386;DHT22;6257;57.634;18.310;2023-02-02T02:41:45;1.40;99.90
12386;DHT22;6257;57.634;18.310;2023-02-02T02:44:16;1.20;99.90
12386;DHT22;6257;57.634;18.310;2023-02-02T02:46:45;1.30;99.90
12386;DHT22;6257;57.634;18.310;2023-02-02T02:49:14;1.10;99.90
12386;DHT22;6257;57.634;18.310;2023-02-02T02:51:45;1.00;99.90
12386;DHT22;6257;57.634;18.310;2023-02-02T02:54:16;0.90;99.90
12386;DHT22;6257;57.634;18.310;2023-02-02T02:57:03;1.20;99.90
12386;DHT22;6257;57.634;18.310;2023-02-02T02:59:38;0.90;99.90
12386;DHT22;6257;57.634;18.310;2023-02-02T03:02:27;1.20;99.90
12386;DHT22;6257;57.634;18.310;2023-02-02T03:05:07;1.00;99.90
12386;DHT22;6257;57.634;18.310;2023-02-02T03:07:41;1.10;99.90
12386;DHT22;6257;57.634;18.310;2023-02-02T03:10:11;1.10;99.90
12386;DHT22;6257;57.634;18.310;2023-02-02T03:12:43;1.10;99.90
12386;DHT22;6257;57.634;18.310;2023-02-02T03:15:12;1.20;99.90
12386;DHT22;6257;57.634;18.310;2023-02-02T03:17:40;1.20;99.90
12386;DHT22;6257;57.634;18.310;2023-02-02T03:22:37;1.30;99.90
12386;DHT22;6257;57.634;18.310;2023-02-02T03:25:05;1.30;99.90
12386;DHT22;6257;57.634;18.310;2023-02-02T03:27:36;1.30;99.90
12386;DHT22;6257;57.634;18.310;2023-02-02T03:30:04;1.40;99.90
12386;DHT22;6257;57.634;18.310;2023-02-02T03:32:31;1.40;99.90
12386;DHT22;6257;57.634;18.310;2023-02-02T03:34:58;1.30;99.90
12386;DHT22;6257;57.634;18.310;2023-02-02T03:37:27;1.30;99.90
12386;DHT22;6257;57.634;18.310;2023-02-02T03:39:54;1.40;99.90
12386;DHT22;6257;57.634;18.310;2023-02-02T03:42:21;1.30;99.90
12386;DHT22;6257;57.634;18.310;2023-02-02T03:44:48;1.30;99.90
12386;DHT22;6257;57.634;18.310;2023-02-02T03:47:15;1.20;99.90
12386;DHT22;6257;57.634;18.310;2023-02-02T03:49:42;1.20;99.90
12386;DHT22;6257;57.634;18.310;2023-02-02T03:52:09;1.20;99.90
12386;DHT22;6257;57.634;18.310;2023-02-02T03:54:38;1.20;99.90
12386;DHT22;6257;57.634;18.310;2023-02-02T03:57:05;1.20;99.90
12386;DHT22;6257;57.634;18.310;2023-02-02T03:59:32;1.20;99.90
12386;DHT22;6257;57.634;18.310;2023-02-02T04:01:59;1.30;99.90
12386;DHT22;6257;57.634;18.310;2023-02-02T04:04:26;1.20;99.90
12386;DHT22;6257;57.634;18.310;2023-02-02T04:06:53;1.20;99.90
12386;DHT22;6257;57.634;18.310;2023-02-02T04:09:20;1.20;99.90
12386;DHT22;6257;57.634;18.310;2023-02-02T04:11:49;1.20;99.90
12386;DHT22;6257;57.634;18.310;2023-02-02T04:14:16;1.40;99.90
12386;DHT22;6257;57.634;18.310;2023-02-02T04:16:43;1.30;99.90
12386;DHT22;6257;57.634;18.310;2023-02-02T04:19:10;1.40;99.90
12386;DHT22;6257;57.634;18.310;2023-02-02T04:21:38;1.20;99.90
12386;DHT22;6257;57.634;18.310;2023-02-02T04:24:08;1.30;99.90
12386;DHT22;6257;57.634;18.310;2023-02-02T04:26:36;1.20;99.90
12386;DHT22;6257;57.634;18.310;2023-02-02T04:29:04;1.20;99.90
12386;DHT22;6257;57.634;18.310;2023-02-02T04:31:31;1.20;99.90
12386;DHT22;6257;57.634;18.310;2023-02-02T04:33:58;1.40;99.90
12386;DHT22;6257;57.634;18.310;2023-02-02T04:36:25;1.10;99.90
12386;DHT22;6257;57.634;18.310;2023-02-02T04:38:53;1.30;99.90
12386;DHT22;6257;57.634;18.310;2023-02-02T04:41:22;1.30;99.90
12386;DHT22;6257;57.634;18.310;2023-02-02T04:43:49;1.50;99.90
12386;DHT22;6257;57.634;18.310;2023-02-02T04:46:17;1.10;99.90
12386;DHT22;6257;57.634;18.310;2023-02-02T04:48:47;1.20;99.90
12386;DHT22;6257;57.634;18.310;2023-02-02T04:51:15;1.20;99.90
12386;DHT22;6257;57.634;18.310;2023-02-02T04:53:43;1.40;99.90
12386;DHT22;6257;57.634;18.310;2023-02-02T04:56:12;1.20;99.90
12386;DHT22;6257;57.634;18.310;2023-02-02T04:58:40;1.20;99.90
12386;DHT22;6257;57.634;18.310;2023-02-02T05:01:10;1.20;99.90
12386;DHT22;6257;57.634;18.310;2023-02-02T05:03:39;1.20;99.90
12386;DHT22;6257;57.634;18.310;2023-02-02T05:06:06;1.20;99.90
12386;DHT22;6257;57.634;18.310;2023-02-02T05:08:34;1.30;99.90
12386;DHT22;6257;57.634;18.310;2023-02-02T05:11:06;1.30;99.90
12386;DHT22;6257;57.634;18.310;2023-02-02T05:13:33;1.30;99.90
12386;DHT22;6257;57.634;18.310;2023-02-02T05:16:01;1.30;99.90
12386;DHT22;6257;57.634;18.310;2023-02-02T05:18:29;1.30;99.90
12386;DHT22;6257;57.634;18.310;2023-02-02T05:20:59;1.30;99.90
12386;DHT22;6257;57.634;18.310;2023-02-02T05:23:27;1.20;99.90
12386;DHT22;6257;57.634;18.310;2023-02-02T05:25:55;1.20;99.90
12386;DHT22;6257;57.634;18.310;2023-02-02T05:28:23;1.20;99.90
12386;DHT22;6257;57.634;18.310;2023-02-02T05:30:51;1.10;99.90
12386;DHT22;6257;57.634;18.310;2023-02-02T05:33:18;1.10;99.90
12386;DHT22;6257;57.634;18.310;2023-02-02T05:35:46;1.20;99.90
12386;DHT22;6257;57.634;18.310;2023-02-02T05:38:15;1.20;99.90
12386;DHT22;6257;57.634;18.310;2023-02-02T05:40:42;1.10;99.90
12386;DHT22;6257;57.634;18.310;2023-02-02T05:43:09;1.20;99.90
12386;DHT22;6257;57.634;18.310;2023-02-02T05:45:36;1.10;99.90
12386;DHT22;6257;57.634;18.310;2023-02-02T05:48:04;1.40;99.90
12386;DHT22;6257;57.634;18.310;2023-02-02T05:50:31;1.20;99.90
12386;DHT22;6257;57.634;18.310;2023-02-02T05:52:58;1.30;99.90
12386;DHT22;6257;57.634;18.310;2023-02-02T05:55:27;1.10;99.90
12386;DHT22;6257;57.634;18.310;2023-02-02T05:57:54;1.30;99.90
12386;DHT22;6257;57.634;18.310;2023-02-02T06:00:22;1.00;99.90
12386;DHT22;6257;57.634;18.310;2023-02-02T06:02:49;1.00;99.90
12386;DHT22;6257;57.634;18.310;2023-02-02T06:05:16;1.00;99.90
12386;DHT22;6257;57.634;18.310;2023-02-02T06:07:43;1.00;99.90
12386;DHT22;6257;57.634;18.310;2023-02-02T06:10:11;0.90;99.90
12386;DHT22;6257;57.634;18.310;2023-02-02T06:12:39;0.90;99.90
12386;DHT22;6257;57.634;18.310;2023-02-02T06:15:07;0.90;99.90
12386;DHT22;6257;57.634;18.310;2023-02-02T06:17:34;0.80;99.90
12386;DHT22;6257;57.634;18.310;2023-02-02T06:20:02;0.80;99.90
12386;DHT22;6257;57.634;18.310;2023-02-02T06:22:29;0.80;99.90
12386;DHT22;6257;57.634;18.310;2023-02-02T06:24:57;0.80;99.90
12386;DHT22;6257;57.634;18.310;2023-02-02T06:27:24;0.70;99.90
12386;DHT22;6257;57.634;18.310;2023-02-02T06:29:53;1.20;99.90
12386;DHT22;6257;57.634;18.310;2023-02-02T06:32:20;0.70;99.90
12386;DHT22;6257;57.634;18.310;2023-02-02T06:34:47;0.70;99.90
12386;DHT22;6257;57.634;18.310;2023-02-02T06:37:14;1.30;99.90
12386;DHT22;6257;57.634;18.310;2023-02-02T06:39:41;0.70;99.90
12386;DHT22;6257;57.634;18.310;2023-02-02T06:42:08;0.70;99.90
12386;DHT22;6257;57.634;18.310;2023-02-02T06:44:35;0.60;99.90
12386;DHT22;6257;57.634;18.310;2023-02-02T06:47:03;1.30;99.90
12386;DHT22;6257;57.634;18.310;2023-02-02T06:49:31;0.70;99.90
12386;DHT22;6257;57.634;18.310;2023-02-02T06:51:58;1.50;99.90
12386;DHT22;6257;57.634;18.310;2023-02-02T06:54:25;0.70;99.90
12386;DHT22;6257;57.634;18.310;2023-02-02T06:56:52;1.30;99.90
12386;DHT22;6257;57.634;18.310;2023-02-02T06:59:19;1.40;99.90
12386;DHT22;6257;57.634;18.310;2023-02-02T07:01:48;0.60;99.90
12386;DHT22;6257;57.634;18.310;2023-02-02T07:04:17;0.70;99.90
12386;DHT22;6257;57.634;18.310;2023-02-02T07:06:44;1.10;99.90
12386;DHT22;6257;57.634;18.310;2023-02-02T07:09:11;0.70;99.90
12386;DHT22;6257;57.634;18.310;2023-02-02T07:11:38;1.30;99.90
12386;DHT22;6257;57.634;18.310;2023-02-02T07:14:06;0.60;99.90
12386;DHT22;6257;57.634;18.310;2023-02-02T07:16:33;0.60;99.90
12386;DHT22;6257;57.634;18.310;2023-02-02T07:19:00;0.70;99.90
12386;DHT22;6257;57.634;18.310;2023-02-02T07:21:28;0.60;99.90
12386;DHT22;6257;57.634;18.310;2023-02-02T07:24:00;0.60;99.90
12386;DHT22;6257;57.634;18.310;2023-02-02T07:26:28;0.60;99.90
12386;DHT22;6257;57.634;18.310;2023-02-02T07:28:55;0.70;99.90
12386;DHT22;6257;57.634;18.310;2023-02-02T07:31:23;0.70;99.90
12386;DHT22;6257;57.634;18.310;2023-02-02T07:33:51;0.70;99.90
12386;DHT22;6257;57.634;18.310;2023-02-02T07:36:19;0.70;99.90
12386;DHT22;6257;57.634;18.310;2023-02-02T07:38:50;0.70;99.90
12386;DHT22;6257;57.634;18.310;2023-02-02T07:41:19;0.70;99.90
12386;DHT22;6257;57.634;18.310;2023-02-02T07:43:47;1.30;99.90
12386;DHT22;6257;57.634;18.310;2023-02-02T07:46:15;0.60;99.90
12386;DHT22;6257;57.634;18.310;2023-02-02T07:48:42;1.30;99.90
12386;DHT22;6257;57.634;18.310;2023-02-02T07:51:14;0.70;99.90
12386;DHT22;6257;57.634;18.310;2023-02-02T07:53:42;1.20;99.90
12386;DHT22;6257;57.634;18.310;2023-02-02T07:56:13;0.70;99.90
12386;DHT22;6257;57.634;18.310;2023-02-02T07:58:41;0.70;99.90
12386;DHT22;6257;57.634;18.310;2023-02-02T08:01:10;0.70;99.90
12386;DHT22;6257;57.634;18.310;2023-02-02T08:03:38;0.70;99.90
12386;DHT22;6257;57.634;18.310;2023-02-02T08:06:10;0.70;99.90
12386;DHT22;6257;57.634;18.310;2023-02-02T08:08:37;0.80;99.90
12386;DHT22;6257;57.634;18.310;2023-02-02T08:11:07;1.30;99.90
12386;DHT22;6257;57.634;18.310;2023-02-02T08:13:36;0.80;99.90
12386;DHT22;6257;57.634;18.310;2023-02-02T08:16:03;1.40;99.90
12386;DHT22;6257;57.634;18.310;2023-02-02T08:18:31;0.80;99.90
12386;DHT22;6257;57.634;18.310;2023-02-02T08:20:58;0.80;99.90
12386;DHT22;6257;57.634;18.310;2023-02-02T08:23:25;1.30;99.90
12386;DHT22;6257;57.634;18.310;2023-02-02T08:25:53;0.90;99.90
12386;DHT22;6257;57.634;18.310;2023-02-02T08:28:20;0.90;99.90
12386;DHT22;6257;57.634;18.310;2023-02-02T08:30:48;0.90;99.90
12386;DHT22;6257;57.634;18.310;2023-02-02T08:33:16;1.30;99.90
12386;DHT22;6257;57.634;18.310;2023-02-02T08:35:43;0.90;99.90
12386;DHT22;6257;57.634;18.310;2023-02-02T08:38:12;1.30;99.90
12386;DHT22;6257;57.634;18.310;2023-02-02T08:40:39;1.40;99.90
12386;DHT22;6257;57.634;18.310;2023-02-02T08:43:06;0.90;99.90
12386;DHT22;6257;57.634;18.310;2023-02-02T08:45:33;1.30;99.90
12386;DHT22;6257;57.634;18.310;2023-02-02T08:48:01;0.90;99.90
12386;DHT22;6257;57.634;18.310;2023-02-02T08:50:28;0.90;99.90
12386;DHT22;6257;57.634;18.310;2023-02-02T08:52:55;0.90;99.90
12386;DHT22;6257;57.634;18.310;2023-02-02T08:55:23;1.30;99.90
12386;DHT22;6257;57.634;18.310;2023-02-02T08:57:50;1.00;99.90
12386;DHT22;6257;57.634;18.310;2023-02-02T09:00:18;1.30;99.90
12386;DHT22;6257;57.634;18.310;2023-02-02T09:02:49;1.00;99.90
12386;DHT22;6257;57.634;18.310;2023-02-02T09:05:17;0.90;99.90
12386;DHT22;6257;57.634;18.310;2023-02-02T09:07:44;0.90;99.90
12386;DHT22;6257;57.634;18.310;2023-02-02T09:10:13;1.40;99.90
12386;DHT22;6257;57.634;18.310;2023-02-02T09:12:40;0.90;99.90
12386;DHT22;6257;57.634;18.310;2023-02-02T09:15:08;1.20;99.90
12386;DHT22;6257;57.634;18.310;2023-02-02T09:17:36;0.90;99.90
12386;DHT22;6257;57.634;18.310;2023-02-02T09:20:04;1.10;99.90
12386;DHT22;6257;57.634;18.310;2023-02-02T09:22:33;0.90;99.90
12386;DHT22;6257;57.634;18.310;2023-02-02T09:25:00;0.90;99.90
12386;DHT22;6257;57.634;18.310;2023-02-02T09:27:27;0.90;99.90
12386;DHT22;6257;57.634;18.310;2023-02-02T09:29:54;0.90;99.90
12386;DHT22;6257;57.634;18.310;2023-02-02T09:32:21;0.90;99.90
12386;DHT22;6257;57.634;18.310;2023-02-02T09:34:48;1.30;99.90
12386;DHT22;6257;57.634;18.310;2023-02-02T09:37:15;1.30;99.90
12386;DHT22;6257;57.634;18.310;2023-02-02T09:39:43;1.00;99.90
12386;DHT22;6257;57.634;18.310;2023-02-02T09:42:33;1.30;99.90
12386;DHT22;6257;57.634;18.310;2023-02-02T09:45:06;1.00;99.90
12386;DHT22;6257;57.634;18.310;2023-02-02T09:50:42;1.00;99.90
12386;DHT22;6257;57.634;18.310;2023-02-02T09:53:17;1.40;99.90
12386;DHT22;6257;57.634;18.310;2023-02-02T09:55:49;1.00;99.90
12386;DHT22;6257;57.634;18.310;2023-02-02T09:58:21;1.00;99.90
12386;DHT22;6257;57.634;18.310;2023-02-02T10:00:54;1.00;99.90
12386;DHT22;6257;57.634;18.310;2023-02-02T10:03:26;1.00;99.90
12386;DHT22;6257;57.634;18.310;2023-02-02T10:05:57;1.00;99.90
12386;DHT22;6257;57.634;18.310;2023-02-02T10:08:32;1.00;99.90
12386;DHT22;6257;57.634;18.310;2023-02-02T10:11:28;1.00;99.90
12386;DHT22;6257;57.634;18.310;2023-02-02T10:14:00;1.00;99.90
12386;DHT22;6257;57.634;18.310;2023-02-02T10:16:29;0.90;99.90
12386;DHT22;6257;57.634;18.310;2023-02-02T10:19:00;0.90;99.90
12386;DHT22;6257;57.634;18.310;2023-02-02T10:21:34;1.10;99.90
12386;DHT22;6257;57.634;18.310;2023-02-02T10:24:03;0.90;99.90
12386;DHT22;6257;57.634;18.310;2023-02-02T10:26:37;1.00;99.90
12386;DHT22;6257;57.634;18.310;2023-02-02T10:29:15;1.00;99.90
12386;DHT22;6257;57.634;18.310;2023-02-02T10:31:49;1.00;99.90
12386;DHT22;6257;57.634;18.310;2023-02-02T10:34:22;1.00;99.90
12386;DHT22;6257;57.634;18.310;2023-02-02T10:37:01;1.00;99.90
12386;DHT22;6257;57.634;18.310;2023-02-02T10:39:43;1.00;99.90
12386;DHT22;6257;57.634;18.310;2023-02-02T10:42:19;1.00;99.90
12386;DHT22;6257;57.634;18.310;2023-02-02T10:44:50;0.90;99.90
12386;DHT22;6257;57.634;18.310;2023-02-02T10:47:23;0.80;99.90
12386;DHT22;6257;57.634;18.310;2023-02-02T10:50:00;0.80;99.90
12386;DHT22;6257;57.634;18.310;2023-02-02T10:52:32;0.70;99.90
12386;DHT22;6257;57.634;18.310;2023-02-02T10:55:06;0.70;99.90
12386;DHT22;6257;57.634;18.310;2023-02-02T10:57:52;0.80;99.90
12386;DHT22;6257;57.634;18.310;2023-02-02T11:00:23;0.70;99.90
12386;DHT22;6257;57.634;18.310;2023-02-02T11:02:51;0.70;99.90
12386;DHT22;6257;57.634;18.310;2023-02-02T11:05:22;0.70;99.90
12386;DHT22;6257;57.634;18.310;2023-02-02T11:08:15;0.70;99.90
12386;DHT22;6257;57.634;18.310;2023-02-02T11:10:43;0.70;99.90
12386;DHT22;6257;57.634;18.310;2023-02-02T11:13:16;0.80;99.90
12386;DHT22;6257;57.634;18.310;2023-02-02T11:15:45;0.80;99.90
12386;DHT22;6257;57.634;18.310;2023-02-02T11:18:13;0.80;99.90
12386;DHT22;6257;57.634;18.310;2023-02-02T11:20:50;0.80;99.90
12386;DHT22;6257;57.634;18.310;2023-02-02T11:23:20;0.80;99.90
12386;DHT22;6257;57.634;18.310;2023-02-02T11:25:57;0.80;99.90
12386;DHT22;6257;57.634;18.310;2023-02-02T11:28:31;0.70;99.90
12386;DHT22;6257;57.634;18.310;2023-02-02T11:30:58;0.70;99.90
12386;DHT22;6257;57.634;18.310;2023-02-02T11:33:27;0.70;99.90
12386;DHT22;6257;57.634;18.310;2023-02-02T11:35:56;0.70;99.90
12386;DHT22;6257;57.634;18.310;2023-02-02T11:38:24;1.30;99.90
12386;DHT22;6257;57.634;18.310;2023-02-02T11:40:58;1.10;99.90
12386;DHT22;6257;57.634;18.310;2023-02-02T11:43:32;0.80;99.90
12386;DHT22;6257;57.634;18.310;2023-02-02T11:46:02;0.60;99.90
12386;DHT22;6257;57.634;18.310;2023-02-02T11:48:32;0.60;99.90
12386;DHT22;6257;57.634;18.310;2023-02-02T11:51:01;0.70;99.90
12386;DHT22;6257;57.634;18.310;2023-02-02T11:53:30;0.70;99.90
12386;DHT22;6257;57.634;18.310;2023-02-02T11:56:01;0.70;99.90
12386;DHT22;6257;57.634;18.310;2023-02-02T11:58:42;0.80;99.90
12386;DHT22;6257;57.634;18.310;2023-02-02T12:01:22;0.70;99.90
12386;DHT22;6257;57.634;18.310;2023-02-02T12:03:51;0.80;99.90
12386;DHT22;6257;57.634;18.310;2023-02-02T12:06:20;0.70;99.90
12386;DHT22;6257;57.634;18.310;2023-02-02T12:08:48;0.70;99.90
12386;DHT22;6257;57.634;18.310;2023-02-02T12:11:27;0.70;99.90
12386;DHT22;6257;57.634;18.310;2023-02-02T12:14:04;1.30;99.90
12386;DHT22;6257;57.634;18.310;2023-02-02T12:16:51;0.70;99.90
12386;DHT22;6257;57.634;18.310;2023-02-02T12:19:52;1.30;99.90
12386;DHT22;6257;57.634;18.310;2023-02-02T12:22:40;0.80;99.90
12386;DHT22;6257;57.634;18.310;2023-02-02T12:25:28;0.80;99.90
12386;DHT22;6257;57.634;18.310;2023-02-02T12:28:04;0.70;99.90
12386;DHT22;6257;57.634;18.310;2023-02-02T12:30:40;0.80;99.90
12386;DHT22;6257;57.634;18.310;2023-02-02T12:33:19;0.80;99.90
12386;DHT22;6257;57.634;18.310;2023-02-02T12:36:08;0.90;99.90
12386;DHT22;6257;57.634;18.310;2023-02-02T12:38:50;0.90;99.90
12386;DHT22;6257;57.634;18.310;2023-02-02T12:41:35;0.90;99.90
12386;DHT22;6257;57.634;18.310;2023-02-02T12:44:11;0.90;99.90
12386;DHT22;6257;57.634;18.310;2023-02-02T12:46:56;0.90;99.90
12386;DHT22;6257;57.634;18.310;2023-02-02T12:49:41;0.80;99.90
12386;DHT22;6257;57.634;18.310;2023-02-02T12:52:19;0.80;99.90
12386;DHT22;6257;57.634;18.310;2023-02-02T12:58:00;0.90;99.90
12386;DHT22;6257;57.634;18.310;2023-02-02T13:00:40;0.90;99.90
12386;DHT22;6257;57.634;18.310;2023-02-02T13:03:22;0.90;99.90
12386;DHT22;6257;57.634;18.310;2023-02-02T13:06:01;0.90;99.90
12386;DHT22;6257;57.634;18.310;2023-02-02T13:08:34;0.90;99.90
12386;DHT22;6257;57.634;18.310;2023-02-02T13:11:05;0.90;99.90
12386;DHT22;6257;57.634;18.310;2023-02-02T13:13:54;0.90;99.90
12386;DHT22;6257;57.634;18.310;2023-02-02T13:16:22;1.00;99.90
12386;DHT22;6257;57.634;18.310;2023-02-02T13:18:55;0.90;99.90
12386;DHT22;6257;57.634;18.310;2023-02-02T13:21:25;0.90;99.90
12386;DHT22;6257;57.634;18.310;2023-02-02T13:23:56;0.90;99.90
12386;DHT22;6257;57.634;18.310;2023-02-02T13:26:27;0.90;99.90
12386;DHT22;6257;57.634;18.310;2023-02-02T13:29:04;0.90;99.90
12386;DHT22;6257;57.634;18.310;2023-02-02T13:31:36;0.80;99.90
12386;DHT22;6257;57.634;18.310;2023-02-02T13:34:19;0.90;99.90
12386;DHT22;6257;57.634;18.310;2023-02-02T13:36:51;0.80;99.90
12386;DHT22;6257;57.634;18.310;2023-02-02T13:39:27;0.80;99.90
12386;DHT22;6257;57.634;18.310;2023-02-02T13:41:58;0.80;99.90
12386;DHT22;6257;57.634;18.310;2023-02-02T13:44:30;0.80;99.90
12386;DHT22;6257;57.634;18.310;2023-02-02T13:47:02;0.80;99.90
12386;DHT22;6257;57.634;18.310;2023-02-02T13:49:35;0.70;99.90
12386;DHT22;6257;57.634;18.310;2023-02-02T13:52:12;0.70;99.90
12386;DHT22;6257;57.634;18.310;2023-02-02T13:58:18;0.60;99.90
12386;DHT22;6257;57.634;18.310;2023-02-02T14:00:51;0.50;99.90
12386;DHT22;6257;57.634;18.310;2023-02-02T14:03:29;0.50;99.90
12386;DHT22;6257;57.634;18.310;2023-02-02T14:06:10;0.40;99.90
12386;DHT22;6257;57.634;18.310;2023-02-02T14:08:44;0.40;99.90
12386;DHT22;6257;57.634;18.310;2023-02-02T14:11:19;0.60;99.90
12386;DHT22;6257;57.634;18.310;2023-02-02T14:13:48;0.50;99.90
12386;DHT22;6257;57.634;18.310;2023-02-02T14:16:49;0.50;99.90
12386;DHT22;6257;57.634;18.310;2023-02-02T14:22:07;0.40;99.90
12386;DHT22;6257;57.634;18.310;2023-02-02T14:24:45;0.40;99.90
12386;DHT22;6257;57.634;18.310;2023-02-02T14:30:22;0.40;99.90
12386;DHT22;6257;57.634;18.310;2023-02-02T14:32:49;0.30;99.90
12386;DHT22;6257;57.634;18.310;2023-02-02T14:35:52;0.40;99.90
12386;DHT22;6257;57.634;18.310;2023-02-02T14:38:32;0.40;99.90
12386;DHT22;6257;57.634;18.310;2023-02-02T14:41:07;0.40;99.90
12386;DHT22;6257;57.634;18.310;2023-02-02T14:43:44;0.40;99.90
12386;DHT22;6257;57.634;18.310;2023-02-02T14:46:25;0.40;99.90
12386;DHT22;6257;57.634;18.310;2023-02-02T14:49:21;0.40;99.90
12386;DHT22;6257;57.634;18.310;2023-02-02T14:52:00;0.30;99.90
12386;DHT22;6257;57.634;18.310;2023-02-02T14:54:37;0.40;99.90
12386;DHT22;6257;57.634;18.310;2023-02-02T14:57:19;0.40;99.90
12386;DHT22;6257;57.634;18.310;2023-02-02T14:59:47;0.40;99.90
12386;DHT22;6257;57.634;18.310;2023-02-02T15:02:17;0.40;99.90
12386;DHT22;6257;57.634;18.310;2023-02-02T15:04:46;0.30;99.90
12386;DHT22;6257;57.634;18.310;2023-02-02T15:07:36;0.30;99.90
12386;DHT22;6257;57.634;18.310;2023-02-02T15:10:08;0.30;99.90
12386;DHT22;6257;57.634;18.310;2023-02-02T15:12:39;0.30;99.90
12386;DHT22;6257;57.634;18.310;2023-02-02T15:15:15;0.30;99.90
12386;DHT22;6257;57.634;18.310;2023-02-02T15:17:53;0.50;99.90
12386;DHT22;6257;57.634;18.310;2023-02-02T15:20:28;0.50;99.90
12386;DHT22;6257;57.634;18.310;2023-02-02T15:22:59;0.50;99.90
12386;DHT22;6257;57.634;18.310;2023-02-02T15:25:32;0.60;99.90
12386;DHT22;6257;57.634;18.310;2023-02-02T15:28:07;0.60;99.90
12386;DHT22;6257;57.634;18.310;2023-02-02T15:30:36;0.60;99.90
12386;DHT22;6257;57.634;18.310;2023-02-02T15:33:22;0.60;99.90
12386;DHT22;6257;57.634;18.310;2023-02-02T15:35:52;0.60;99.90
12386;DHT22;6257;57.634;18.310;2023-02-02T15:38:20;0.60;99.90
12386;DHT22;6257;57.634;18.310;2023-02-02T15:40:51;0.60;99.90
12386;DHT22;6257;57.634;18.310;2023-02-02T15:43:27;0.60;99.90
12386;DHT22;6257;57.634;18.310;2023-02-02T15:46:00;0.60;99.90
12386;DHT22;6257;57.634;18.310;2023-02-02T15:48:29;0.60;99.90
12386;DHT22;6257;57.634;18.310;2023-02-02T15:50:59;0.50;99.90
12386;DHT22;6257;57.634;18.310;2023-02-02T15:53:28;0.70;99.90
12386;DHT22;6257;57.634;18.310;2023-02-02T15:55:58;0.50;99.90
12386;DHT22;6257;57.634;18.310;2023-02-02T15:58:31;0.50;99.90
12386;DHT22;6257;57.634;18.310;2023-02-02T16:01:05;0.50;99.90
12386;DHT22;6257;57.634;18.310;2023-02-02T16:03:45;0.50;99.90
12386;DHT22;6257;57.634;18.310;2023-02-02T16:06:13;0.50;99.90
12386;DHT22;6257;57.634;18.310;2023-02-02T16:08:41;0.40;99.90
12386;DHT22;6257;57.634;18.310;2023-02-02T16:11:12;0.50;99.90
12386;DHT22;6257;57.634;18.310;2023-02-02T16:13:40;0.20;99.90
12386;DHT22;6257;57.634;18.310;2023-02-02T16:16:21;0.20;99.90
12386;DHT22;6257;57.634;18.310;2023-02-02T16:19:04;0.20;99.90
12386;DHT22;6257;57.634;18.310;2023-02-02T16:21:32;0.20;99.90
12386;DHT22;6257;57.634;18.310;2023-02-02T16:24:00;0.20;99.90
12386;DHT22;6257;57.634;18.310;2023-02-02T16:26:30;0.20;99.90
12386;DHT22;6257;57.634;18.310;2023-02-02T16:28:59;0.40;99.90
12386;DHT22;6257;57.634;18.310;2023-02-02T16:31:27;0.20;99.90
12386;DHT22;6257;57.634;18.310;2023-02-02T16:33:55;0.10;99.90